createdAt,value
2023-02-06T00:02:05.405Z,102594.89
2023-02-06T00:04:52.052Z,102591.04
2023-02-06T00:07:38.549Z,102594.95
2023-02-06T00:10:25.358Z,102589.27
2023-02-06T00:13:11.604Z,102590.21
2023-02-06T00:15:58.443Z,102591.94
2023-02-06T00:18:45.334Z,102593.32
2023-02-06T00:21:31.758Z,102591.30
2023-02-06T00:24:18.001Z,102590.19
2023-02-06T00:27:04.251Z,102592.66
2023-02-06T00:29:50.902Z,102594.34
2023-02-06T00:32:37.340Z,102591.69
2023-02-06T00:35:24.555Z,102593.02
2023-02-06T00:38:11.534Z,102594.66
2023-02-06T00:40:58.039Z,102590.98
2023-02-06T00:43:44.347Z,102590.87
2023-02-06T00:46:32.662Z,102589.18
2023-02-06T00:49:19.316Z,102583.98
2023-02-06T00:52:05.582Z,102584.98
2023-02-06T00:54:52.352Z,102581.30
2023-02-06T00:57:39.220Z,102587.83
2023-02-06T01:00:27.413Z,102596.02
2023-02-06T01:03:14.261Z,102591.94
2023-02-06T01:06:00.933Z,102587.90
2023-02-06T01:08:48.002Z,102584.95
2023-02-06T01:11:35.441Z,102579.78
2023-02-06T01:14:22.108Z,102576.84
2023-02-06T01:17:10.345Z,102576.04
2023-02-06T01:19:57.430Z,102571.33
2023-02-06T01:22:44.066Z,102574.45
2023-02-06T01:25:30.816Z,102578.76
2023-02-06T01:28:17.433Z,102573.67
2023-02-06T01:31:15.050Z,102570.59
2023-02-06T01:34:01.613Z,102569.52
2023-02-06T01:36:48.160Z,102564.59
2023-02-06T01:39:34.593Z,102559.76
2023-02-06T01:42:21.074Z,102558.55
2023-02-06T01:45:42.206Z,102561.36
2023-02-06T01:48:37.962Z,102557.71
2023-02-06T01:51:26.892Z,102557.17
2023-02-06T01:54:14.556Z,102549.88
2023-02-06T01:57:06.651Z,102545.15
2023-02-06T01:59:57.879Z,102545.58
2023-02-06T02:02:49.307Z,102546.27
2023-02-06T02:05:36.364Z,102555.90
2023-02-06T02:08:30.678Z,102558.69
2023-02-06T02:11:43.593Z,102558.36
2023-02-06T02:14:30.540Z,102555.36
2023-02-06T02:17:47.916Z,102552.41
2023-02-06T02:20:54.073Z,102550.64
2023-02-06T02:23:58.607Z,102546.57
2023-02-06T02:27:16.901Z,102543.11
2023-02-06T02:30:28.099Z,102544.14
2023-02-06T02:33:39.629Z,102543.34
2023-02-06T02:36:27.766Z,102552.77
2023-02-06T02:39:35.864Z,102556.45
2023-02-06T02:43:09.138Z,102558.16
2023-02-06T02:46:04.350Z,102565.43
2023-02-06T02:48:54.837Z,102575.31
2023-02-06T02:51:42.060Z,102575.55
2023-02-06T02:54:28.737Z,102575.77
2023-02-06T02:57:24.147Z,102575.95
2023-02-06T03:00:11.555Z,102576.07
2023-02-06T03:02:58.906Z,102571.85
2023-02-06T03:06:00.582Z,102570.05
2023-02-06T03:08:54.857Z,102568.94
2023-02-06T03:11:47.016Z,102569.05
2023-02-06T03:14:47.711Z,102566.70
2023-02-06T03:17:44.703Z,102559.98
2023-02-06T03:20:32.791Z,102563.77
2023-02-06T03:23:24.913Z,102567.02
2023-02-06T03:26:18.256Z,102563.85
2023-02-06T03:29:09.376Z,102556.15
2023-02-06T03:32:00.496Z,102555.79
2023-02-06T03:35:12.960Z,102562.48
2023-02-06T03:37:59.726Z,102554.45
2023-02-06T03:40:48.100Z,102556.70
2023-02-06T03:43:34.788Z,102555.41
2023-02-06T03:46:23.813Z,102551.35
2023-02-06T03:49:13.697Z,102550.48
2023-02-06T03:52:09.125Z,102551.27
2023-02-06T03:55:04.892Z,102553.25
2023-02-06T03:57:58.610Z,102551.53
2023-02-06T04:00:46.920Z,102554.65
2023-02-06T04:03:33.901Z,102558.70
2023-02-06T04:06:20.401Z,102552.53
2023-02-06T04:09:06.951Z,102556.33
2023-02-06T04:11:53.552Z,102560.70
2023-02-06T04:14:40.005Z,102561.45
2023-02-06T04:17:43.115Z,102559.33
2023-02-06T04:20:33.258Z,102557.59
2023-02-06T04:23:20.570Z,102557.90
2023-02-06T04:26:07.361Z,102553.70
2023-02-06T04:28:54.029Z,102553.63
2023-02-06T04:31:41.143Z,102554.67
2023-02-06T04:34:35.217Z,102557.48
2023-02-06T04:37:21.689Z,102557.42
2023-02-06T04:40:08.789Z,102560.41
2023-02-06T04:42:55.153Z,102558.98
2023-02-06T04:45:41.988Z,102558.11
2023-02-06T04:48:28.271Z,102554.40
2023-02-06T04:51:14.831Z,102551.78
2023-02-06T04:54:01.716Z,102549.58
2023-02-06T04:56:48.372Z,102543.73
2023-02-06T04:59:35.045Z,102540.86
2023-02-06T05:02:21.429Z,102544.89
2023-02-06T05:05:09.113Z,102546.89
2023-02-06T05:07:55.469Z,102549.40
2023-02-06T05:10:41.696Z,102546.95
2023-02-06T05:13:28.537Z,102550.69
2023-02-06T05:16:16.951Z,102552.86
2023-02-06T05:19:03.533Z,102557.37
2023-02-06T05:21:49.990Z,102563.91
2023-02-06T05:24:36.238Z,102566.52
2023-02-06T05:27:22.778Z,102565.27
2023-02-06T05:30:10.761Z,102569.48
2023-02-06T05:32:58.459Z,102574.23
2023-02-06T05:35:45.230Z,102571.23
2023-02-06T05:38:31.449Z,102569.73
2023-02-06T05:41:18.788Z,102569.52
2023-02-06T05:44:05.449Z,102569.39
2023-02-06T05:46:52.110Z,102571.19
2023-02-06T05:49:38.716Z,102573.80
2023-02-06T05:52:25.033Z,102576.67
2023-02-06T05:55:12.968Z,102572.17
2023-02-06T05:57:59.307Z,102568.80
2023-02-06T06:00:45.790Z,102570.70
2023-02-06T06:03:33.403Z,102569.17
2023-02-06T06:06:20.002Z,102574.34
2023-02-06T06:09:06.712Z,102569.78
2023-02-06T06:11:53.053Z,102572.83
2023-02-06T06:14:39.550Z,102571.37
2023-02-06T06:17:26.281Z,102574.99
2023-02-06T06:20:12.886Z,102573.40
2023-02-06T06:22:59.616Z,102571.96
2023-02-06T06:25:47.881Z,102569.39
2023-02-06T06:28:36.087Z,102569.29
2023-02-06T06:31:22.480Z,102567.51
2023-02-06T06:34:09.019Z,102568.95
2023-02-06T06:36:55.649Z,102568.75
2023-02-06T06:39:42.004Z,102570.89
2023-02-06T06:42:28.742Z,102575.77
2023-02-06T06:45:15.064Z,102579.83
2023-02-06T06:48:01.698Z,102578.50
2023-02-06T06:50:50.164Z,102582.51
2023-02-06T06:53:41.451Z,102586.52
2023-02-06T06:56:28.336Z,102591.08
2023-02-06T06:59:14.498Z,102593.88
2023-02-06T07:02:01.007Z,102597.83
2023-02-06T07:04:47.174Z,102603.30
2023-02-06T07:07:33.542Z,102600.60
2023-02-06T07:10:20.278Z,102602.94
2023-02-06T07:13:06.950Z,102609.70
2023-02-06T07:15:53.462Z,102612.89
2023-02-06T07:18:41.345Z,102625.02
2023-02-06T07:21:27.909Z,102625.80
2023-02-06T07:24:14.425Z,102623.30
2023-02-06T07:27:01.192Z,102626.35
2023-02-06T07:29:47.635Z,102623.77
2023-02-06T07:32:37.013Z,102627.87
2023-02-06T07:35:23.720Z,102626.85
2023-02-06T07:38:10.328Z,102631.09
2023-02-06T07:41:01.604Z,102623.70
2023-02-06T07:43:48.145Z,102619.48
2023-02-06T07:46:34.738Z,102619.60
2023-02-06T07:49:21.525Z,102616.54
2023-02-06T07:52:08.886Z,102612.57
2023-02-06T07:54:55.372Z,102613.11
2023-02-06T07:57:43.734Z,102614.84
2023-02-06T08:00:32.398Z,102618.94
2023-02-06T08:03:19.281Z,102621.63
2023-02-06T08:06:10.515Z,102620.14
2023-02-06T08:08:57.711Z,102615.84
2023-02-06T08:11:44.735Z,102612.30
2023-02-06T08:14:31.708Z,102613.83
2023-02-06T08:17:19.829Z,102616.79
2023-02-06T08:20:06.496Z,102613.34
2023-02-06T08:22:55.313Z,102616.23
2023-02-06T08:25:41.679Z,102616.61
2023-02-06T08:28:28.362Z,102623.46
2023-02-06T08:31:20.020Z,102627.40
2023-02-06T08:34:08.875Z,102629.21
2023-02-06T08:36:55.321Z,102632.18
2023-02-06T08:39:41.954Z,102623.23
2023-02-06T08:42:28.550Z,102625.13
2023-02-06T08:45:14.943Z,102619.77
2023-02-06T08:48:01.440Z,102622.18
2023-02-06T08:50:48.034Z,102617.09
2023-02-06T08:53:34.908Z,102618.95
2023-02-06T08:56:21.590Z,102624.80
2023-02-06T08:59:08.485Z,102622.05
2023-02-06T09:01:55.379Z,102629.41
2023-02-06T09:04:42.842Z,102623.05
2023-02-06T09:07:31.381Z,102624.45
2023-02-06T09:10:27.177Z,102616.05
2023-02-06T09:13:14.491Z,102617.55
2023-02-06T09:16:00.791Z,102621.58
2023-02-06T09:18:48.791Z,102627.82
2023-02-06T09:21:35.924Z,102628.41
2023-02-06T09:24:22.481Z,102633.95
2023-02-06T09:27:09.226Z,102637.55
2023-02-06T09:29:55.872Z,102639.95
2023-02-06T09:32:43.374Z,102637.73
2023-02-06T09:35:29.737Z,102633.68
2023-02-06T09:38:16.192Z,102641.20
2023-02-06T09:41:11.617Z,102641.42
2023-02-06T09:44:00.760Z,102639.94
2023-02-06T09:46:57.817Z,102633.93
2023-02-06T09:49:51.831Z,102638.41
2023-02-06T09:53:10.645Z,102635.54
2023-02-06T09:56:21.454Z,102639.27
2023-02-06T09:59:19.512Z,102642.78
2023-02-06T10:02:18.587Z,102631.21
2023-02-06T10:05:23.926Z,102634.11
2023-02-06T10:08:22.304Z,102627.38
2023-02-06T10:11:19.722Z,102622.64
2023-02-06T10:14:19.226Z,102623.70
2023-02-06T10:17:24.347Z,102625.29
2023-02-06T10:20:16.966Z,102622.16
2023-02-06T10:23:17.810Z,102618.39
2023-02-06T10:26:18.935Z,102618.23
2023-02-06T10:29:09.842Z,102616.39
2023-02-06T10:32:01.692Z,102617.71
2023-02-06T10:35:10.464Z,102623.12
2023-02-06T10:38:16.068Z,102624.55
2023-02-06T10:41:03.490Z,102619.83
2023-02-06T10:44:02.264Z,102617.40
2023-02-06T10:46:51.503Z,102614.86
2023-02-06T10:49:43.961Z,102607.55
2023-02-06T10:52:35.285Z,102606.89
2023-02-06T10:55:36.398Z,102606.61
2023-02-06T10:58:33.442Z,102612.86
2023-02-06T11:01:26.467Z,102614.81
2023-02-06T11:04:32.714Z,102608.91
2023-02-06T11:07:27.975Z,102602.59
2023-02-06T11:10:18.335Z,102601.64
2023-02-06T11:13:34.404Z,102601.50
2023-02-06T11:16:26.277Z,102607.90
2023-02-06T11:19:27.990Z,102606.15
2023-02-06T11:22:16.481Z,102604.81
2023-02-06T11:25:11.349Z,102609.58
2023-02-06T11:28:00.295Z,102607.71
2023-02-06T11:31:00.515Z,102611.95
2023-02-06T11:33:57.275Z,102616.72
2023-02-06T11:36:45.493Z,102621.52
2023-02-06T11:39:35.704Z,102624.46
2023-02-06T11:42:25.086Z,102625.08
2023-02-06T11:45:28.128Z,102626.63
2023-02-06T11:48:41.539Z,102627.09
2023-02-06T11:51:48.910Z,102630.45
2023-02-06T11:54:35.824Z,102636.75
2023-02-06T11:57:25.428Z,102641.63
2023-02-06T12:00:23.882Z,102641.75
2023-02-06T12:03:33.171Z,102639.76
2023-02-06T12:06:38.261Z,102641.66
2023-02-06T12:09:24.986Z,102641.91
2023-02-06T12:12:28.838Z,102640.52
2023-02-06T12:15:47.885Z,102637.02
2023-02-06T12:18:44.463Z,102633.52
2023-02-06T12:21:45.031Z,102632.75
2023-02-06T12:24:45.388Z,102632.31
2023-02-06T12:27:39.970Z,102635.83
2023-02-06T12:30:37.996Z,102631.73
2023-02-06T12:33:36.868Z,102630.95
2023-02-06T12:36:30.616Z,102622.63
2023-02-06T12:39:21.198Z,102617.01
2023-02-06T12:42:32.518Z,102613.08
2023-02-06T12:45:31.893Z,102621.82
2023-02-06T12:48:23.466Z,102622.92
2023-02-06T12:51:22.317Z,102621.52
2023-02-06T12:54:20.409Z,102623.62
2023-02-06T12:57:16.114Z,102625.50
2023-02-06T13:00:41.109Z,102625.00
2023-02-06T13:03:31.343Z,102628.77
2023-02-06T13:06:25.019Z,102624.98
2023-02-06T13:09:25.116Z,102624.06
2023-02-06T13:12:23.715Z,102630.02
2023-02-06T13:15:22.827Z,102629.99
2023-02-06T13:18:35.344Z,102632.61
2023-02-06T13:21:24.216Z,102626.12
2023-02-06T13:24:17.066Z,102621.80
2023-02-06T13:27:09.940Z,102620.08
2023-02-06T13:29:56.344Z,102619.16
2023-02-06T13:32:46.261Z,102613.42
2023-02-06T13:35:32.856Z,102618.96
2023-02-06T13:38:22.704Z,102622.08
2023-02-06T13:41:15.496Z,102626.30
2023-02-06T13:44:30.113Z,102615.55
2023-02-06T13:47:45.104Z,102604.75
2023-02-06T13:51:10.828Z,102599.84
2023-02-06T13:54:14.662Z,102596.88
2023-02-06T13:57:28.745Z,102597.17
2023-02-06T14:00:24.643Z,102603.56
2023-02-06T14:03:30.731Z,102614.17
2023-02-06T14:06:31.381Z,102611.50
2023-02-06T14:09:43.887Z,102615.14
2023-02-06T14:12:39.395Z,102616.20
2023-02-06T14:15:40.062Z,102615.77
2023-02-06T14:18:45.782Z,102607.98
2023-02-06T14:22:05.012Z,102608.15
2023-02-06T14:25:16.274Z,102608.84
2023-02-06T14:28:24.546Z,102608.24
2023-02-06T14:31:35.545Z,102606.77
2023-02-06T14:34:34.875Z,102603.80
2023-02-06T14:37:35.620Z,102605.05
2023-02-06T14:40:29.924Z,102610.27
2023-02-06T14:43:20.800Z,102614.45
2023-02-06T14:46:12.652Z,102615.98
2023-02-06T14:49:00.313Z,102618.34
2023-02-06T14:51:53.171Z,102618.46
2023-02-06T14:54:40.213Z,102622.38
2023-02-06T14:57:31.958Z,102624.62
2023-02-06T15:00:20.202Z,102629.84
2023-02-06T15:03:23.386Z,102633.60
2023-02-06T15:06:13.926Z,102626.59
2023-02-06T15:09:01.486Z,102622.64
2023-02-06T15:11:54.170Z,102618.84
2023-02-06T15:14:51.923Z,102611.24
2023-02-06T15:17:39.102Z,102612.73
2023-02-06T15:20:35.225Z,102616.06
2023-02-06T15:23:42.265Z,102612.21
2023-02-06T15:26:37.901Z,102616.54
2023-02-06T15:29:26.919Z,102617.42
2023-02-06T15:32:39.050Z,102620.33
2023-02-06T15:35:35.087Z,102628.38
2023-02-06T15:38:24.325Z,102627.33
2023-02-06T15:41:13.040Z,102625.59
2023-02-06T15:44:12.258Z,102624.18
2023-02-06T15:47:02.708Z,102620.19
2023-02-06T15:49:51.139Z,102626.84
2023-02-06T15:52:42.959Z,102631.62
2023-02-06T15:55:33.965Z,102648.55
2023-02-06T15:58:20.672Z,102654.84
2023-02-06T16:01:16.381Z,102657.19
2023-02-06T16:04:10.060Z,102648.02
2023-02-06T16:07:11.772Z,102648.49
2023-02-06T16:10:10.329Z,102651.19
2023-02-06T16:13:00.166Z,102655.77
2023-02-06T16:16:10.236Z,102659.52
2023-02-06T16:18:58.703Z,102664.77
2023-02-06T16:21:46.879Z,102669.55
2023-02-06T16:24:34.480Z,102672.95
2023-02-06T16:27:27.828Z,102673.41
2023-02-06T16:30:24.335Z,102669.23
2023-02-06T16:33:39.849Z,102664.56
2023-02-06T16:36:26.777Z,102671.02
2023-02-06T16:39:13.729Z,102671.69
2023-02-06T16:42:00.346Z,102672.39
2023-02-06T16:44:53.837Z,102678.37
2023-02-06T16:47:41.810Z,102679.21
2023-02-06T16:50:29.268Z,102676.45
2023-02-06T16:53:24.621Z,102676.23
2023-02-06T16:56:14.114Z,102676.73
2023-02-06T16:59:01.545Z,102678.58
2023-02-06T17:01:49.676Z,102680.64
2023-02-06T17:04:37.152Z,102681.48
2023-02-06T17:07:28.055Z,102682.66
2023-02-06T17:10:22.394Z,102685.76
2023-02-06T17:13:15.526Z,102682.05
2023-02-06T17:16:03.638Z,102680.27
2023-02-06T17:18:50.985Z,102674.81
2023-02-06T17:21:38.502Z,102673.26
2023-02-06T17:24:26.287Z,102673.09
2023-02-06T17:27:20.363Z,102674.41
2023-02-06T17:30:08.303Z,102669.08
2023-02-06T17:32:57.108Z,102665.31
2023-02-06T17:35:47.598Z,102670.09
2023-02-06T17:38:34.886Z,102667.46
2023-02-06T17:41:22.439Z,102664.52
2023-02-06T17:44:09.638Z,102671.25
2023-02-06T17:46:57.152Z,102674.46
2023-02-06T17:49:44.957Z,102678.17
2023-02-06T17:52:31.632Z,102677.11
2023-02-06T17:55:19.307Z,102677.93
2023-02-06T17:58:07.214Z,102674.80
2023-02-06T18:00:54.306Z,102669.62
2023-02-06T18:03:41.885Z,102672.95
2023-02-06T18:06:34.037Z,102669.02
2023-02-06T18:09:20.901Z,102675.16
2023-02-06T18:12:08.497Z,102687.65
2023-02-06T18:14:56.453Z,102689.31
2023-02-06T18:17:44.173Z,102686.88
2023-02-06T18:20:31.882Z,102681.21
2023-02-06T18:23:19.862Z,102679.09
2023-02-06T18:26:09.771Z,102674.27
2023-02-06T18:28:57.702Z,102667.26
2023-02-06T18:31:46.179Z,102671.23
2023-02-06T18:34:34.384Z,102674.30
2023-02-06T18:37:22.189Z,102674.29
2023-02-06T18:40:10.754Z,102667.22
2023-02-06T18:42:58.506Z,102673.27
2023-02-06T18:45:46.121Z,102678.54
2023-02-06T18:48:33.695Z,102681.45
2023-02-06T18:51:21.306Z,102681.13
2023-02-06T18:54:10.193Z,102685.42
2023-02-06T18:56:57.375Z,102691.20
2023-02-06T18:59:44.887Z,102702.21
2023-02-06T19:02:32.303Z,102699.95
2023-02-06T19:05:21.040Z,102699.23
2023-02-06T19:08:09.054Z,102695.39
2023-02-06T19:10:57.702Z,102702.88
2023-02-06T19:13:46.226Z,102706.95
2023-02-06T19:16:35.990Z,102705.20
2023-02-06T19:19:23.472Z,102705.58
2023-02-06T19:22:11.004Z,102705.80
2023-02-06T19:24:58.906Z,102708.73
2023-02-06T19:27:46.106Z,102715.31
2023-02-06T19:30:33.525Z,102720.92
2023-02-06T19:33:21.083Z,102711.95
2023-02-06T19:36:10.918Z,102710.38
2023-02-06T19:39:01.097Z,102714.25
2023-02-06T19:41:48.790Z,102708.37
2023-02-06T19:44:37.003Z,102699.10
2023-02-06T19:47:24.464Z,102699.20
2023-02-06T19:50:14.145Z,102707.89
2023-02-06T19:53:01.664Z,102708.23
2023-02-06T19:55:49.873Z,102707.98
2023-02-06T19:58:37.183Z,102713.55
2023-02-06T20:01:26.029Z,102707.38
2023-02-06T20:04:14.916Z,102714.52
2023-02-06T20:07:04.200Z,102710.02
2023-02-06T20:09:52.868Z,102711.04
2023-02-06T20:12:39.905Z,102717.20
2023-02-06T20:15:29.624Z,102701.81
2023-02-06T20:18:16.878Z,102703.63
2023-02-06T20:21:03.828Z,102714.55
2023-02-06T20:23:50.959Z,102704.44
2023-02-06T20:26:41.069Z,102703.09
2023-02-06T20:29:36.430Z,102704.27
2023-02-06T20:32:24.562Z,102697.97
2023-02-06T20:35:11.356Z,102703.13
2023-02-06T20:37:58.523Z,102702.41
2023-02-06T20:40:50.904Z,102707.73
2023-02-06T20:43:37.556Z,102702.20
2023-02-06T20:46:29.847Z,102709.51
2023-02-06T20:49:19.981Z,102718.49
2023-02-06T20:52:06.949Z,102714.71
2023-02-06T20:55:09.892Z,102720.91
2023-02-06T20:57:56.526Z,102722.66
2023-02-06T21:00:43.548Z,102721.52
2023-02-06T21:03:30.531Z,102723.13
2023-02-06T21:06:17.172Z,102726.58
2023-02-06T21:09:05.541Z,102716.86
2023-02-06T21:11:51.913Z,102718.25
2023-02-06T21:14:38.346Z,102729.02
2023-02-06T21:17:24.596Z,102726.80
2023-02-06T21:20:11.156Z,102726.14
2023-02-06T21:22:57.659Z,102730.98
2023-02-06T21:25:51.618Z,102736.73
2023-02-06T21:28:39.437Z,102732.67
2023-02-06T21:31:36.049Z,102739.98
2023-02-06T21:34:26.028Z,102737.98
2023-02-06T21:37:12.860Z,102734.38
2023-02-06T21:39:59.309Z,102727.64
2023-02-06T21:42:45.350Z,102727.59
2023-02-06T21:45:31.712Z,102730.77
2023-02-06T21:48:18.126Z,102727.27
2023-02-06T21:51:17.361Z,102723.20
2023-02-06T21:54:04.112Z,102721.19
2023-02-06T21:56:50.732Z,102720.80
2023-02-06T21:59:38.428Z,102722.75
2023-02-06T22:02:25.251Z,102721.04
2023-02-06T22:05:11.702Z,102717.20
2023-02-06T22:07:58.951Z,102715.22
2023-02-06T22:10:45.386Z,102715.09
2023-02-06T22:13:31.529Z,102705.84
2023-02-06T22:16:22.245Z,102705.86
2023-02-06T22:19:10.397Z,102702.31
2023-02-06T22:21:57.016Z,102695.00
2023-02-06T22:24:46.026Z,102698.96
2023-02-06T22:27:33.209Z,102701.29
2023-02-06T22:30:20.587Z,102697.16
2023-02-06T22:33:06.899Z,102687.33
2023-02-06T22:35:53.283Z,102683.77
2023-02-06T22:38:41.321Z,102689.21
2023-02-06T22:41:29.135Z,102688.84
2023-02-06T22:44:17.711Z,102684.87
2023-02-06T22:47:04.424Z,102681.25
2023-02-06T22:49:52.680Z,102675.06
2023-02-06T22:53:02.039Z,102674.55
2023-02-06T22:56:06.845Z,102677.15
2023-02-06T22:58:54.866Z,102669.88
2023-02-06T23:01:44.764Z,102671.20
2023-02-06T23:04:36.106Z,102676.16
2023-02-06T23:07:22.722Z,102682.41
2023-02-06T23:10:09.608Z,102700.29
2023-02-06T23:12:56.300Z,102688.70
2023-02-06T23:15:42.886Z,102696.23
2023-02-06T23:18:29.729Z,102694.10
2023-02-06T23:21:17.701Z,102693.78
2023-02-06T23:24:05.930Z,102689.52
2023-02-06T23:26:53.686Z,102690.98
2023-02-06T23:29:40.061Z,102686.89
2023-02-06T23:32:26.781Z,102680.79
2023-02-06T23:35:13.426Z,102686.73
2023-02-06T23:37:59.783Z,102687.73
2023-02-06T23:40:47.574Z,102685.06
2023-02-06T23:43:34.711Z,102681.67
2023-02-06T23:46:22.289Z,102679.77
2023-02-06T23:49:09.213Z,102672.91
2023-02-06T23:51:55.869Z,102673.46
2023-02-06T23:54:42.123Z,102677.07
2023-02-06T23:57:28.697Z,102679.48
